Time;durP1;ratioP1;P1;durP2;ratioP2;P2;SDS_P1;SDS_P2;PMS_P1;PMS_P2;Temp;Humidity;BMP_temperature;BMP_pressure;BME280_temperature;BME280_humidity;BME280_pressure;Samples;Min_cycle;Max_cycle;Signal;HPM_P1;HPM_P2
2022/06/27 00:00:18;;;;;;;1999.90;999.90;;;;;;;19.23;100.00;99736.84;5015835;28;20127;-52
2022/06/27 00:03:11;;;;;;;1999.90;999.90;;;;;;;19.24;100.00;99737.69;5013265;28;20112;-53
2022/06/27 00:05:56;;;;;;;1999.90;999.90;;;;;;;19.08;100.00;99730.69;5013828;28;20057;-52
2022/06/27 00:08:40;;;;;;;1999.90;999.90;;;;;;;19.15;100.00;99720.56;5012125;28;20691;-52
2022/06/27 00:11:26;;;;;;;1999.90;999.90;;;;;;;19.16;100.00;99735.53;5010085;28;20037;-52
2022/06/27 00:14:10;;;;;;;1999.90;999.90;;;;;;;19.07;100.00;99739.59;5016629;28;20045;-52
2022/06/27 00:16:55;;;;;;;1999.90;999.90;;;;;;;19.00;100.00;99730.31;5014961;28;20049;-52
2022/06/27 00:19:39;;;;;;;1999.90;999.90;;;;;;;18.90;100.00;99740.63;5017689;28;20502;-52
2022/06/27 00:22:24;;;;;;;1999.90;999.90;;;;;;;18.88;100.00;99734.56;5014377;28;20045;-52
2022/06/27 00:25:09;;;;;;;1999.90;999.90;;;;;;;18.83;100.00;99727.84;5012330;28;20038;-53
2022/06/27 00:27:54;;;;;;;1999.90;999.90;;;;;;;18.76;100.00;99724.69;5013092;28;20053;-52
2022/06/27 00:30:39;;;;;;;1999.90;999.90;;;;;;;18.71;100.00;99732.03;5014938;28;20405;-53
2022/06/27 00:33:24;;;;;;;1999.90;999.90;;;;;;;18.79;100.00;99728.97;5015442;28;20145;-52
2022/06/27 00:36:09;;;;;;;1999.90;999.90;;;;;;;18.67;100.00;99733.16;5015823;28;20053;-52
2022/06/27 00:38:54;;;;;;;1999.90;999.90;;;;;;;18.62;100.00;99730.81;5014505;28;20104;-52
2022/06/27 00:41:38;;;;;;;1999.90;999.90;;;;;;;18.60;100.00;99726.53;5010868;28;20041;-52
2022/06/27 00:44:37;;;;;;;1999.90;999.90;;;;;;;18.58;100.00;99736.34;5010202;28;20046;-52
2022/06/27 00:47:22;;;;;;;1999.90;999.90;;;;;;;18.62;100.00;99733.47;5013104;28;20045;-52
2022/06/27 00:50:07;;;;;;;1999.90;999.90;;;;;;;18.61;100.00;99737.03;5011096;28;20510;-52
2022/06/27 00:52:52;;;;;;;1999.90;999.90;;;;;;;18.58;100.00;99728.41;5010338;28;20042;-52
2022/06/27 00:55:39;;;;;;;1999.90;999.90;;;;;;;18.46;100.00;99735.31;5017875;28;20049;-52
2022/06/27 00:58:24;;;;;;;1999.90;999.90;;;;;;;18.32;100.00;99724.63;5010562;28;20041;-52
2022/06/27 01:01:09;;;;;;;1999.90;999.90;;;;;;;18.36;100.00;99729.69;5012015;28;20049;-52
2022/06/27 01:03:53;;;;;;;1999.90;999.90;;;;;;;18.31;100.00;99730.88;5014625;28;20132;-52
2022/06/27 01:06:38;;;;;;;1999.90;999.90;;;;;;;18.33;100.00;99736.94;5011191;28;20052;-53
2022/06/27 01:09:23;;;;;;;1999.90;999.90;;;;;;;18.16;100.00;99725.50;5013340;28;20077;-53
2022/06/27 01:12:08;;;;;;;1999.90;999.90;;;;;;;18.23;100.00;99731.31;5014126;28;20127;-51
2022/06/27 01:14:53;;;;;;;1999.90;999.90;;;;;;;18.19;100.00;99737.75;5014582;28;20080;-52
2022/06/27 01:17:39;;;;;;;1999.90;999.90;;;;;;;18.17;100.00;99740.50;5016063;28;20050;-51
2022/06/27 01:20:23;;;;;;;1999.90;999.90;;;;;;;18.22;100.00;99746.38;5013606;28;20556;-52
2022/06/27 01:23:12;;;;;;;1999.90;999.90;;;;;;;18.15;100.00;99738.88;5009928;28;20595;-52
2022/06/27 01:25:56;;;;;;;1999.90;999.90;;;;;;;18.07;100.00;99741.97;5011173;28;20084;-52
2022/06/27 01:28:42;;;;;;;1999.90;999.90;;;;;;;18.07;100.00;99735.78;5014734;28;20042;-53
2022/06/27 01:31:27;;;;;;;1999.90;999.90;;;;;;;17.95;100.00;99745.31;5016119;28;20041;-53
2022/06/27 01:34:12;;;;;;;1999.90;999.90;;;;;;;18.04;100.00;99736.00;5019361;28;20147;-52
2022/06/27 01:36:58;;;;;;;1999.90;999.90;;;;;;;17.95;100.00;99737.34;5014860;28;20045;-52
2022/06/27 01:39:44;;;;;;;1999.90;999.90;;;;;;;17.90;100.00;99723.50;5018416;28;20064;-52
2022/06/27 01:42:29;;;;;;;1999.90;999.90;;;;;;;17.90;100.00;99736.75;5012333;28;20045;-52
2022/06/27 01:45:13;;;;;;;1999.90;999.90;;;;;;;17.85;100.00;99733.53;5016883;28;20049;-52
2022/06/27 01:47:59;;;;;;;1999.90;999.90;;;;;;;17.88;100.00;99734.19;5013496;28;20770;-52
2022/06/27 01:50:49;;;;;;;1999.90;999.90;;;;;;;17.83;100.00;99736.25;5020606;28;20055;-52
2022/06/27 01:53:34;;;;;;;1999.90;999.90;;;;;;;17.75;100.00;99725.19;5016963;28;20057;-52
2022/06/27 01:56:20;;;;;;;1999.90;999.90;;;;;;;17.69;100.00;99734.34;5019194;28;20481;-52
2022/06/27 01:59:04;;;;;;;1999.90;999.90;;;;;;;17.74;100.00;99724.34;5022397;28;20684;-52
2022/06/27 02:01:50;;;;;;;1999.90;999.90;;;;;;;17.70;100.00;99727.25;5015787;28;20412;-52
2022/06/27 02:04:36;;;;;;;1999.90;999.90;;;;;;;17.53;100.00;99720.25;5015458;28;20508;-52
2022/06/27 02:07:21;;;;;;;1999.90;999.90;;;;;;;17.54;100.00;99721.94;5018453;28;20046;-53
2022/06/27 02:10:06;;;;;;;1999.90;999.90;;;;;;;17.55;100.00;99733.38;5017956;28;20476;-52
2022/06/27 02:12:53;;;;;;;1999.90;999.90;;;;;;;17.51;100.00;99733.53;5018169;28;20400;-52
2022/06/27 02:16:06;;;;;;;1999.90;999.90;;;;;;;17.51;100.00;99733.53;5018784;28;20050;-52
2022/06/27 02:18:53;;;;;;;1999.90;999.90;;;;;;;17.61;100.00;99731.25;5024459;28;20046;-52
2022/06/27 02:21:37;;;;;;;1999.90;999.90;;;;;;;17.54;100.00;99735.19;5015703;28;20432;-52
2022/06/27 02:24:26;;;;;;;1999.90;999.90;;;;;;;17.55;100.00;99734.25;5014342;28;20389;-52
2022/06/27 02:27:11;;;;;;;1999.90;999.90;;;;;;;17.61;100.00;99736.53;5015900;28;20054;-52
2022/06/27 02:29:55;;;;;;;1999.90;999.90;;;;;;;17.55;100.00;99734.25;5016771;28;20042;-52
2022/06/27 02:32:40;;;;;;;1999.90;999.90;;;;;;;17.61;100.00;99728.59;5020641;28;20054;-52
2022/06/27 02:35:27;;;;;;;1999.90;999.90;;;;;;;17.57;100.00;99736.81;5014956;28;20120;-53
2022/06/27 02:38:11;;;;;;;1999.90;999.90;;;;;;;17.56;100.00;99733.31;5014109;28;20712;-52
2022/06/27 02:40:58;;;;;;;1999.90;999.90;;;;;;;17.58;100.00;99738.50;5030834;28;20046;-52
2022/06/27 02:43:47;;;;;;;1999.90;999.90;;;;;;;17.48;100.00;99731.09;5015087;28;20133;-52
2022/06/27 02:46:33;;;;;;;1999.90;999.90;;;;;;;17.54;100.00;99735.19;5014063;28;20045;-52
2022/06/27 02:49:19;;;;;;;1999.90;999.90;;;;;;;17.40;100.00;99743.03;5027476;28;20046;-52
2022/06/27 02:52:18;;;;;;;1999.90;999.90;;;;;;;17.44;100.00;99737.47;5027439;28;20945;-52
2022/06/27 02:55:18;;;;;;;1999.90;999.90;;;;;;;17.52;100.00;99731.78;5014665;28;20037;-52
2022/06/27 02:58:06;;;;;;;1999.90;999.90;;;;;;;17.48;100.00;99736.38;5012753;28;20042;-52
2022/06/27 03:00:53;;;;;;;1999.90;999.90;;;;;;;17.47;100.00;99726.72;5017360;28;20046;-53
2022/06/27 03:03:41;;;;;;;1999.90;999.90;;;;;;;17.57;100.00;99742.09;5018392;28;20103;-52
2022/06/27 03:06:26;;;;;;;1999.90;999.90;;;;;;;17.65;100.00;99742.56;5013956;28;20046;-52
2022/06/27 03:09:10;;;;;;;1999.90;999.90;;;;;;;17.57;100.00;99747.41;5016155;28;20057;-52
2022/06/27 03:11:55;;;;;;;1999.90;999.90;;;;;;;17.47;100.00;99739.94;5015540;28;20046;-52
2022/06/27 03:14:39;;;;;;;1999.90;999.90;;;;;;;17.46;100.00;99740.91;5013434;28;20041;-52
2022/06/27 03:17:24;;;;;;;1999.90;999.90;;;;;;;17.58;100.00;99749.09;5022416;28;20407;-52
2022/06/27 03:20:31;;;;;;;1999.90;999.90;;;;;;;17.46;100.00;99746.19;5012905;28;20092;-52
2022/06/27 03:23:29;;;;;;;1999.90;999.90;;;;;;;17.40;100.00;99748.31;5014620;28;20045;-52
2022/06/27 03:26:17;;;;;;;1999.90;999.90;;;;;;;17.51;100.00;99752.06;5013220;28;20058;-52
2022/06/27 03:29:03;;;;;;;1999.90;999.90;;;;;;;17.60;100.00;99758.69;5026955;28;20049;-53
2022/06/27 03:31:48;;;;;;;1999.90;999.90;;;;;;;17.74;100.00;99756.13;5023304;28;20390;-52
2022/06/27 03:34:33;;;;;;;1999.90;999.90;;;;;;;17.69;100.00;99762.63;5014136;28;20045;-52
2022/06/27 03:37:34;;;;;;;1999.90;999.90;;;;;;;17.63;100.00;99752.34;5015779;28;20041;-52
2022/06/27 03:40:19;;;;;;;1999.90;999.90;;;;;;;17.65;100.00;99750.50;5017479;28;20046;-52
2022/06/27 03:43:08;;;;;;;1999.90;999.90;;;;;;;17.75;100.00;99757.84;5023069;28;20546;-52
2022/06/27 03:45:54;;;;;;;1999.90;999.90;;;;;;;17.81;100.00;99745.22;5015577;28;20657;-53
2022/06/27 03:52:09;;;;;;;1999.90;999.90;;;;;;;17.81;100.00;99764.63;5008613;28;20038;-52
2022/06/27 03:54:55;;;;;;;1999.90;999.90;;;;;;;17.92;100.00;99767.53;5013929;28;20049;-53
2022/06/27 03:57:52;;;;;;;1999.90;999.90;;;;;;;18.06;100.00;99771.19;5010779;28;20787;-53
2022/06/27 04:00:36;;;;;;;1999.90;999.90;;;;;;;18.16;100.00;99767.91;5012952;28;20049;-53
2022/06/27 04:03:23;;;;;;;1999.90;999.90;;;;;;;18.17;100.00;99767.00;5010875;28;20471;-53
2022/06/27 04:06:11;;;;;;;1999.90;999.90;;;;;;;18.37;100.00;99759.69;5012189;28;20542;-54
2022/06/27 04:08:56;;;;;;;1999.90;999.90;;;;;;;18.51;100.00;99764.19;5015207;28;20085;-53
2022/06/27 04:11:41;;;;;;;1999.90;999.90;;;;;;;18.69;100.00;99773.72;5005069;28;20046;-54
2022/06/27 04:14:30;;;;;;;1999.90;999.90;;;;;;;18.98;100.00;99765.84;5010751;28;20049;-55
2022/06/27 04:17:41;;;;;;;1999.90;999.90;;;;;;;19.53;100.00;99773.06;5011629;28;20052;-54
2022/06/27 04:20:51;;;;;;;1999.90;999.90;;;;;;;19.84;100.00;99778.19;5012314;28;20054;-54
2022/06/27 04:23:37;;;;;;;1999.90;999.90;;;;;;;20.15;100.00;99775.34;5016921;28;20049;-54
2022/06/27 04:26:45;;;;;;;1999.90;999.90;;;;;;;20.54;100.00;99767.47;5014321;28;20562;-55
2022/06/27 04:29:31;;;;;;;1999.90;999.90;;;;;;;20.80;100.00;99755.97;5009285;28;20448;-55
2022/06/27 04:32:18;;;;;;;1999.90;999.90;;;;;;;20.98;100.00;99754.72;5010984;28;20045;-55
2022/06/27 04:35:04;;;;;;;1999.90;999.90;;;;;;;21.16;100.00;99755.28;5009344;28;20491;-55
2022/06/27 04:37:48;;;;;;;1999.90;999.90;;;;;;;21.44;100.00;99762.19;5013708;28;20045;-55
2022/06/27 04:40:56;;;;;;;1999.90;999.90;;;;;;;21.61;100.00;99761.88;5008421;28;20041;-56
2022/06/27 04:43:42;;;;;;;1999.90;999.90;;;;;;;21.75;100.00;99766.19;5016614;28;20038;-56
2022/06/27 04:46:27;;;;;;;1999.90;999.90;;;;;;;21.81;100.00;99768.44;5011604;28;20830;-55
2022/06/27 04:49:25;;;;;;;1999.90;999.90;;;;;;;21.99;100.00;99762.72;5009763;28;20056;-55
2022/06/27 04:52:11;;;;;;;1999.90;999.90;;;;;;;22.28;100.00;99769.44;5006024;28;20049;-55
2022/06/27 04:54:56;;;;;;;1999.90;999.90;;;;;;;22.60;100.00;99771.53;5007737;28;20050;-56
2022/06/27 04:57:43;;;;;;;1999.90;999.90;;;;;;;22.47;100.00;99778.75;5015147;28;20038;-56
2022/06/27 05:00:27;;;;;;;1999.90;999.90;;;;;;;22.94;100.00;99788.50;5024811;28;20137;-57
2022/06/27 05:03:31;;;;;;;1999.90;999.90;;;;;;;22.96;100.00;99764.38;5019988;28;20041;-56
2022/06/27 05:06:26;;;;;;;1999.90;999.90;;;;;;;23.32;96.54;99782.03;5022243;28;20077;-55
2022/06/27 05:09:16;;;;;;;1999.90;999.90;;;;;;;23.20;98.92;99775.81;5018302;28;20058;-55
2022/06/27 05:12:00;;;;;;;1999.90;999.90;;;;;;;23.18;97.48;99776.94;5013796;28;20046;-56
2022/06/27 05:14:46;;;;;;;1999.90;999.90;;;;;;;23.55;92.70;99777.53;5016042;28;20616;-55
2022/06/27 05:17:30;;;;;;;1999.90;999.90;;;;;;;23.74;93.92;99785.81;5012511;28;20049;-56
2022/06/27 05:20:16;;;;;;;1999.90;999.90;;;;;;;23.88;93.88;99787.38;5013945;28;20053;-56
2022/06/27 05:23:01;;;;;;;1999.90;999.90;;;;;;;23.89;90.16;99783.75;5018210;28;20081;-55
2022/06/27 05:25:47;;;;;;;1999.90;999.90;;;;;;;24.28;89.06;99784.16;5017063;28;20645;-56
2022/06/27 05:28:33;;;;;;;1999.90;999.90;;;;;;;24.12;89.62;99778.38;5015536;28;20042;-56
2022/06/27 05:31:18;;;;;;;1999.90;999.90;;;;;;;24.40;90.24;99787.63;5014129;28;20052;-56
2022/06/27 05:34:02;;;;;;;1999.90;999.90;;;;;;;24.65;85.34;99786.47;5012833;28;20126;-56
2022/06/27 05:36:47;;;;;;;1999.90;999.90;;;;;;;24.30;86.51;99778.66;5016592;28;20480;-56
2022/06/27 05:39:34;;;;;;;1999.90;999.90;;;;;;;24.93;83.36;99776.94;5010753;28;20053;-56
2022/06/27 05:42:19;;;;;;;1999.90;999.90;;;;;;;24.79;85.27;99780.78;5011812;28;20380;-56
2022/06/27 05:45:05;;;;;;;1999.90;999.90;;;;;;;25.29;82.88;99785.53;5013859;28;20053;-57
2022/06/27 05:48:00;;;;;;;1999.90;999.90;;;;;;;25.16;83.96;99783.88;5025195;28;20045;-56
2022/06/27 05:50:44;;;;;;;1999.90;999.90;;;;;;;25.57;85.21;99790.13;5010639;28;20133;-56
2022/06/27 05:53:32;;;;;;;1999.90;999.90;;;;;;;25.27;83.40;99785.63;5010904;28;20111;-56
2022/06/27 05:56:17;;;;;;;1999.90;999.90;;;;;;;25.68;81.09;99778.50;5012881;28;20739;-56
2022/06/27 05:59:02;;;;;;;1999.90;999.90;;;;;;;25.83;83.22;99792.38;5011242;28;20049;-57
2022/06/27 06:01:47;;;;;;;1999.90;999.90;;;;;;;26.23;81.72;99800.41;5011179;28;20042;-57
2022/06/27 06:04:34;;;;;;;1999.90;999.90;;;;;;;26.19;78.43;99801.66;5013553;28;20053;-54
2022/06/27 06:07:22;;;;;;;1999.90;999.90;;;;;;;26.48;76.78;99798.19;5015924;28;20121;-55
2022/06/27 06:10:07;;;;;;;1999.90;999.90;;;;;;;26.83;76.91;99794.94;5012978;28;20050;-53
2022/06/27 06:12:52;;;;;;;1999.90;999.90;;;;;;;26.20;76.74;99799.84;5011718;28;20045;-54
2022/06/27 06:15:38;;;;;;;1999.90;999.90;;;;;;;26.64;77.42;99801.16;5027182;28;20049;-54
2022/06/27 06:18:23;;;;;;;1999.90;999.90;;;;;;;27.08;77.49;99798.03;5015545;28;20050;-54
2022/06/27 06:21:08;;;;;;;1999.90;999.90;;;;;;;26.59;76.09;99795.38;5012061;28;20056;-55
2022/06/27 06:23:53;;;;;;;1999.90;999.90;;;;;;;26.52;73.78;99794.25;5013925;28;20069;-54
2022/06/27 06:26:38;;;;;;;1999.90;999.90;;;;;;;27.19;74.04;99790.66;5015415;28;20434;-55
2022/06/27 06:29:23;;;;;;;1999.90;999.90;;;;;;;27.29;72.98;99785.25;5013977;28;20050;-54
2022/06/27 06:32:15;;;;;;;1999.90;999.90;;;;;;;27.03;73.13;99790.38;5018240;28;20530;-55
2022/06/27 06:35:00;;;;;;;1999.90;999.90;;;;;;;27.65;72.56;99775.47;5020603;28;20052;-55
2022/06/27 06:37:45;;;;;;;1999.90;999.90;;;;;;;27.49;70.63;99783.34;5033173;28;20046;-54
2022/06/27 06:40:31;;;;;;;1999.90;999.90;;;;;;;28.02;71.69;99787.25;5020916;28;20136;-57
2022/06/27 06:43:16;;;;;;;1999.90;999.90;;;;;;;28.35;71.12;99791.97;5020172;28;20537;-55
2022/06/27 06:46:21;;;;;;;1999.90;999.90;;;;;;;28.25;68.19;99785.81;5019362;28;20064;-55
2022/06/27 06:49:20;;;;;;;1999.90;999.90;;;;;;;28.50;68.09;99786.06;5014723;28;20045;-55
2022/06/27 06:52:05;;;;;;;1999.90;999.90;;;;;;;28.30;70.20;99791.56;5014803;28;20488;-56
2022/06/27 06:54:50;;;;;;;1999.90;999.90;;;;;;;29.07;69.46;99783.88;5026344;28;20096;-56
2022/06/27 06:57:35;;;;;;;1999.90;999.90;;;;;;;28.79;67.78;99786.66;5016249;28;20045;-56
2022/06/27 07:00:20;;;;;;;1999.90;999.90;;;;;;;28.81;67.62;99778.44;5016295;28;20050;-55
2022/06/27 07:03:04;;;;;;;1999.90;999.90;;;;;;;28.79;65.24;99786.66;5008942;28;20641;-56
2022/06/27 07:05:49;;;;;;;1999.90;999.90;;;;;;;28.80;67.05;99779.44;5007777;28;20067;-55
2022/06/27 07:08:37;;;;;;;1999.90;999.90;;;;;;;29.56;63.09;99778.78;5015109;28;20073;-56
2022/06/27 07:11:22;;;;;;;1999.90;999.90;;;;;;;28.82;65.92;99774.72;5015284;28;20042;-55
2022/06/27 07:14:07;;;;;;;1999.90;999.90;;;;;;;28.91;63.07;99772.94;5013495;28;20480;-56
2022/06/27 07:16:51;;;;;;;1999.90;999.90;;;;;;;29.04;63.13;99774.25;5016914;28;20061;-55
2022/06/27 07:19:38;;;;;;;1999.90;999.90;;;;;;;29.56;63.10;99773.38;5014593;28;20045;-55
2022/06/27 07:22:23;;;;;;;1999.90;999.90;;;;;;;29.82;64.89;99767.94;5014139;28;21557;-56
2022/06/27 07:25:09;;;;;;;1999.90;999.90;;;;;;;29.81;62.42;99764.41;5013595;28;20736;-55
2022/06/27 07:27:55;;;;;;;1999.90;999.90;;;;;;;30.41;62.32;99760.69;5020409;28;20030;-56
2022/06/27 07:30:41;;;;;;;1999.90;999.90;;;;;;;30.03;61.11;99765.66;5016921;28;20091;-56
2022/06/27 07:33:26;;;;;;;1999.90;999.90;;;;;;;29.95;62.41;99765.63;5014206;28;20052;-56
2022/06/27 07:36:17;;;;;;;1999.90;999.90;;;;;;;29.53;60.85;99766.44;5013493;28;20041;-56
2022/06/27 07:39:03;;;;;;;1999.90;999.90;;;;;;;30.07;64.05;99759.94;5016378;28;20046;-57
2022/06/27 07:41:49;;;;;;;1999.90;999.90;;;;;;;30.63;59.45;99758.34;5016074;28;20062;-57
2022/06/27 07:44:34;;;;;;;1999.90;999.90;;;;;;;30.89;55.29;99752.78;5016291;28;20054;-56
2022/06/27 07:47:19;;;;;;;1999.90;999.90;;;;;;;30.82;59.01;99754.47;5016231;28;20076;-56
2022/06/27 07:50:04;;;;;;;1999.90;999.90;;;;;;;30.51;56.40;99753.25;5018043;28;20053;-56
2022/06/27 07:55:57;;;;;;;1999.90;999.90;;;;;;;30.99;57.31;99744.50;5012017;28;20195;-57
2022/06/27 07:58:42;;;;;;;1999.90;999.90;;;;;;;30.81;54.99;99750.06;5027214;28;20140;-56
2022/06/27 08:01:28;;;;;;;1999.90;999.90;;;;;;;30.90;55.78;99740.94;5017921;28;20049;-55
2022/06/27 08:04:14;;;;;;;1999.90;999.90;;;;;;;31.56;55.16;99739.78;5017795;28;20070;-57
2022/06/27 08:06:59;;;;;;;1999.90;999.90;;;;;;;31.84;53.24;99734.72;5015929;28;20249;-56
2022/06/27 08:09:44;;;;;;;1999.90;999.90;;;;;;;31.70;55.04;99749.03;5019605;28;20128;-57
2022/06/27 08:12:31;;;;;;;1999.90;999.90;;;;;;;31.75;56.68;99746.66;5016699;28;20065;-56
2022/06/27 08:15:16;;;;;;;1999.90;999.90;;;;;;;32.16;52.84;99745.59;5014886;28;20196;-55
2022/06/27 08:18:02;;;;;;;1999.90;999.90;;;;;;;31.57;51.74;99746.03;5014124;28;20067;-55
2022/06/27 08:20:47;;;;;;;1999.90;999.90;;;;;;;31.39;53.82;99738.16;5016907;28;20045;-58
2022/06/27 08:23:31;;;;;;;1999.90;999.90;;;;;;;31.37;52.43;99745.63;5015226;28;20053;-56
2022/06/27 08:26:16;;;;;;;1999.90;999.90;;;;;;;31.82;53.13;99749.50;5021474;28;20053;-55
2022/06/27 08:29:02;;;;;;;1999.90;999.90;;;;;;;32.15;50.54;99750.16;5016441;28;20046;-56
2022/06/27 08:31:48;;;;;;;1999.90;999.90;;;;;;;31.74;51.59;99755.78;5016849;28;20527;-55
2022/06/27 08:34:33;;;;;;;1999.90;999.90;;;;;;;31.94;50.88;99750.78;5014899;28;20041;-54
2022/06/27 08:37:18;;;;;;;1999.90;999.90;;;;;;;32.26;48.80;99743.47;5015593;28;20523;-55
2022/06/27 08:40:04;;;;;;;1999.90;999.90;;;;;;;32.13;50.14;99738.66;5013383;28;20046;-57
2022/06/27 08:42:48;;;;;;;1999.90;999.90;;;;;;;33.02;50.61;99749.81;5016701;28;20057;-56
2022/06/27 08:45:34;;;;;;;4.80;4.60;;;;;;;32.92;49.89;99743.81;5014617;28;20464;-55
2022/06/27 08:48:19;;;;;;;3.70;3.60;;;;;;;32.52;48.64;99760.25;5015197;28;20041;-55
2022/06/27 08:51:06;;;;;;;3.40;3.30;;;;;;;33.28;49.75;99752.13;5015559;28;20049;-56
2022/06/27 08:53:52;;;;;;;2.83;2.72;;;;;;;32.73;48.47;99737.91;5018384;28;20049;-55
2022/06/27 08:56:37;;;;;;;2.90;2.80;;;;;;;33.35;49.86;99744.91;5012698;28;20052;-55
2022/06/27 08:59:22;;;;;;;3.00;2.90;;;;;;;33.25;50.47;99758.75;5014411;28;20057;-55
2022/06/27 09:02:08;;;;;;;1999.90;999.90;;;;;;;33.20;46.98;99747.63;5015131;28;20042;-55
2022/06/27 09:04:58;;;;;;;1999.90;999.90;;;;;;;33.11;47.25;99746.00;5018631;28;20139;-56
2022/06/27 09:07:52;;;;;;;1999.90;999.90;;;;;;;33.14;47.01;99732.06;5021510;28;20053;-56
2022/06/27 09:10:43;;;;;;;1999.90;999.90;;;;;;;33.10;48.44;99736.19;5015002;28;20423;-58
2022/06/27 09:13:29;;;;;;;1999.90;999.90;;;;;;;33.66;47.62;99735.72;5012040;28;20049;-57
2022/06/27 09:16:16;;;;;;;1999.90;999.90;;;;;;;33.82;44.99;99743.66;5014898;28;20041;-57
2022/06/27 09:19:01;;;;;;;1999.90;999.90;;;;;;;33.45;50.91;99736.50;5016141;28;20042;-57
2022/06/27 09:22:15;;;;;;;1999.90;999.90;;;;;;;33.63;46.03;99739.66;5015826;28;20054;-58
2022/06/27 09:25:13;;;;;;;1999.90;999.90;;;;;;;33.59;46.39;99743.78;5016824;28;20049;-58
2022/06/27 09:27:58;;;;;;;1999.90;999.90;;;;;;;33.62;46.89;99745.28;5014309;28;20045;-57
2022/06/27 09:30:44;;;;;;;1999.90;999.90;;;;;;;33.08;47.83;99735.53;5016961;28;20046;-57
2022/06/27 09:33:31;;;;;;;1999.90;999.90;;;;;;;33.00;47.91;99730.22;5012561;28;20077;-56
2022/06/27 09:36:15;;;;;;;1999.90;999.90;;;;;;;33.53;45.56;99725.53;5016897;28;20049;-57
2022/06/27 09:39:04;;;;;;;1999.90;999.90;;;;;;;33.43;45.80;99728.53;5021428;28;20042;-56
2022/06/27 09:41:56;;;;;;;1999.90;999.90;;;;;;;33.43;44.70;99722.25;5013518;28;20038;-57
2022/06/27 09:44:44;;;;;;;1999.90;999.90;;;;;;;33.93;44.45;99724.16;5014104;28;20471;-57
2022/06/27 09:47:29;;;;;;;1999.90;999.90;;;;;;;33.38;45.03;99716.56;5016681;28;20050;-57
2022/06/27 09:50:15;;;;;;;1999.90;999.90;;;;;;;34.29;43.83;99715.19;5036015;28;20076;-56
2022/06/27 09:53:01;;;;;;;1999.90;999.90;;;;;;;33.86;43.11;99720.50;5018642;28;20046;-57
2022/06/27 09:55:48;;;;;;;1999.90;999.90;;;;;;;34.72;43.64;99719.75;5019911;28;20053;-57
2022/06/27 09:58:33;;;;;;;1999.90;999.90;;;;;;;33.69;38.28;99719.06;5019476;28;20536;-57
2022/06/27 10:01:19;;;;;;;1999.90;999.90;;;;;;;34.23;39.29;99715.09;5019329;28;20133;-57
2022/06/27 10:04:04;;;;;;;1999.90;999.90;;;;;;;34.56;40.08;99716.28;5019956;28;20045;-57
2022/06/27 10:06:49;;;;;;;1999.90;999.90;;;;;;;34.96;39.96;99711.13;5018184;28;20049;-57
2022/06/27 10:09:36;;;;;;;1999.90;999.90;;;;;;;34.04;38.36;99709.28;5021629;28;20718;-58
2022/06/27 10:12:24;;;;;;;1999.90;999.90;;;;;;;34.87;38.69;99705.03;5016877;28;20057;-57
2022/06/27 10:15:15;;;;;;;1999.90;999.90;;;;;;;34.14;40.97;99701.63;5016155;28;20042;-58
2022/06/27 10:18:02;;;;;;;1999.90;999.90;;;;;;;34.80;40.09;99708.72;5015072;28;20069;-58
2022/06/27 10:20:50;;;;;;;1999.90;999.90;;;;;;;34.33;38.78;99708.31;5015928;28;20049;-57
2022/06/27 10:23:37;;;;;;;1999.90;999.90;;;;;;;34.76;40.80;99694.66;5015845;28;20037;-57
2022/06/27 10:26:40;;;;;;;1999.90;999.90;;;;;;;35.13;39.99;99689.91;5020460;28;20041;-57
2022/06/27 10:29:28;;;;;;;1999.90;999.90;;;;;;;34.76;39.43;99694.66;5015739;28;20038;-58
2022/06/27 10:32:40;;;;;;;1999.90;999.90;;;;;;;35.03;41.35;99686.72;5019355;28;20078;-57
2022/06/27 10:35:24;;;;;;;1999.90;999.90;;;;;;;34.64;39.79;99688.94;5020407;28;20050;-57
2022/06/27 10:38:40;;;;;;;1999.90;999.90;;;;;;;34.96;38.19;99683.94;5023190;28;20299;-57
2022/06/27 10:41:34;;;;;;;1999.90;999.90;;;;;;;35.16;38.34;99684.06;5016341;28;20053;-57
2022/06/27 10:44:30;;;;;;;1999.90;999.90;;;;;;;35.70;39.01;99683.31;5019487;28;20476;-56
2022/06/27 10:47:31;;;;;;;1999.90;999.90;;;;;;;35.23;37.79;99674.09;5021024;28;20049;-57
2022/06/27 10:50:18;;;;;;;1999.90;999.90;;;;;;;35.84;40.64;99670.56;5020325;28;20541;-57
2022/06/27 10:53:22;;;;;;;1999.90;999.90;;;;;;;35.17;40.45;99665.88;5017403;28;20054;-57
2022/06/27 10:56:26;;;;;;;1999.90;999.90;;;;;;;35.35;40.01;99677.06;5012974;28;20046;-56
2022/06/27 10:59:13;;;;;;;1999.90;999.90;;;;;;;36.52;38.93;99669.63;5012232;28;20139;-57
2022/06/27 11:02:00;;;;;;;1999.90;999.90;;;;;;;35.69;39.20;99667.19;5017158;28;20049;-57
2022/06/27 11:04:45;;;;;;;927.63;840.55;;;;;;;34.98;38.98;99662.81;5015589;28;20175;-56
2022/06/27 11:07:30;;;;;;;608.50;559.15;;;;;;;36.11;39.82;99649.69;5014096;28;20492;-57
2022/06/27 11:10:15;;;;;;;527.38;486.60;;;;;;;35.27;38.05;99658.19;5008285;28;20136;-57
2022/06/27 11:13:00;;;;;;;532.05;493.63;;;;;;;35.52;37.93;99642.16;5013748;28;20050;-56
2022/06/27 11:15:51;;;;;;;579.92;534.85;;;;;;;34.89;39.34;99634.09;5017780;28;20052;-56
2022/06/27 11:18:48;;;;;;;641.28;590.22;;;;;;;35.37;38.95;99631.44;5013433;28;20389;-57
2022/06/27 11:21:38;;;;;;;707.65;650.67;;;;;;;36.25;38.90;99628.72;5013685;28;20046;-57
2022/06/27 11:24:23;;;;;;;620.05;570.35;;;;;;;34.91;40.15;99623.03;5014332;28;20049;-58
2022/06/27 11:27:07;;;;;;;657.00;604.58;;;;;;;34.99;39.56;99626.41;5018543;28;20112;-56
2022/06/27 11:32:57;;;;;;;1999.90;999.90;;;;;;;35.64;37.83;99618.75;5015211;28;20038;-53
2022/06/27 11:35:43;;;;;;;1999.90;999.90;;;;;;;35.62;37.19;99618.16;5020566;28;20042;-55
2022/06/27 11:38:42;;;;;;;1999.90;999.90;;;;;;;35.80;37.86;99612.09;5017261;28;20042;-55
2022/06/27 11:41:28;;;;;;;1999.90;999.90;;;;;;;35.44;38.91;99612.41;5015390;28;20549;-55
2022/06/27 11:44:13;;;;;;;1999.90;999.90;;;;;;;34.91;38.37;99615.69;5017483;28;20059;-54
2022/06/27 11:47:03;;;;;;;1999.90;999.90;;;;;;;34.74;39.35;99623.31;5015690;28;20602;-54
2022/06/27 11:49:48;;;;;;;1999.90;999.90;;;;;;;35.10;39.37;99622.28;5013514;28;20045;-55
2022/06/27 11:52:42;;;;;;;1999.90;999.90;;;;;;;35.03;38.67;99605.94;5011838;28;20080;-55
2022/06/27 11:55:26;;;;;;;1999.90;999.90;;;;;;;34.65;38.57;99609.06;5013171;28;20089;-54
2022/06/27 11:58:11;;;;;;;1999.90;999.90;;;;;;;35.18;36.45;99613.13;5016652;28;20053;-55
2022/06/27 12:01:08;;;;;;;1999.90;999.90;;;;;;;35.72;36.60;99604.13;5014489;28;20061;-54
2022/06/27 12:04:25;;;;;;;1999.90;999.90;;;;;;;35.18;38.58;99608.53;5015889;28;20058;-55
2022/06/27 12:07:10;;;;;;;1999.90;999.90;;;;;;;35.34;37.01;99597.28;5002535;28;20053;-55
2022/06/27 12:09:55;;;;;;;1999.90;999.90;;;;;;;35.26;36.41;99605.66;5013590;28;20053;-54
2022/06/27 12:12:44;;;;;;;1999.90;999.90;;;;;;;35.44;36.88;99602.34;5013916;28;20136;-55
2022/06/27 12:15:31;;;;;;;1999.90;999.90;;;;;;;35.88;35.48;99600.16;5014988;28;20380;-55
2022/06/27 12:18:15;;;;;;;1999.90;999.90;;;;;;;35.75;35.98;99590.94;5014098;28;20049;-55
2022/06/27 12:21:00;;;;;;;1999.90;999.90;;;;;;;35.93;36.54;99605.81;5015248;28;20393;-55
2022/06/27 12:23:44;;;;;;;1999.90;999.90;;;;;;;35.08;36.72;99583.59;5010419;28;20121;-55
2022/06/27 12:26:29;;;;;;;1999.90;999.90;;;;;;;35.77;37.48;99597.00;5017530;28;20046;-54
2022/06/27 12:29:14;;;;;;;1999.90;999.90;;;;;;;35.19;36.92;99601.19;5013522;28;20509;-55
2022/06/27 12:31:59;;;;;;;1999.90;999.90;;;;;;;35.23;37.17;99591.56;5015199;28;20060;-55